createdAt,value
2017-03-08T00:00:02.848Z,3.5
2017-03-08T00:01:15.892Z,3.46
2017-03-08T00:02:28.989Z,3.49
2017-03-08T00:03:42.065Z,3.5
2017-03-08T00:04:55.106Z,3.49
2017-03-08T00:06:07.398Z,3.45
2017-03-08T00:07:20.091Z,3.41
2017-03-08T00:08:32.769Z,3.45
2017-03-08T00:09:45.857Z,3.49
2017-03-08T00:10:58.907Z,3.45
2017-03-08T00:12:11.602Z,3.41
2017-03-08T00:13:24.282Z,3.37
2017-03-08T00:14:37.403Z,3.45
2017-03-08T00:15:50.476Z,3.45
2017-03-08T00:17:03.568Z,3.43
2017-03-08T00:18:16.239Z,3.4
2017-03-08T00:19:29.337Z,3.4
2017-03-08T00:20:42.424Z,3.41
2017-03-08T00:21:55.097Z,3.37
2017-03-08T00:23:07.725Z,3.43
2017-03-08T00:24:20.832Z,3.4
2017-03-08T00:25:33.883Z,3.48
2017-03-08T00:26:46.952Z,3.45
2017-03-08T00:27:59.624Z,3.41
2017-03-08T00:29:12.324Z,3.4
2017-03-08T00:30:25.397Z,3.37
2017-03-08T00:31:38.483Z,3.37
2017-03-08T00:32:51.566Z,3.37
2017-03-08T00:34:04.251Z,3.4
2017-03-08T00:35:17.306Z,3.37
2017-03-08T00:36:30.400Z,3.41
2017-03-08T00:37:43.488Z,3.4
2017-03-08T00:38:56.572Z,3.45
2017-03-08T00:40:09.612Z,3.43
2017-03-08T00:41:22.283Z,3.36
2017-03-08T00:42:35.001Z,3.41
2017-03-08T00:43:47.721Z,3.36
2017-03-08T00:45:00.796Z,3.4
2017-03-08T00:46:13.492Z,3.43
2017-03-08T00:47:26.556Z,3.41
2017-03-08T00:48:39.661Z,3.4
2017-03-08T00:49:52.759Z,3.37
2017-03-08T00:51:05.829Z,3.41
2017-03-08T00:52:18.916Z,3.4
2017-03-08T00:53:31.992Z,3.34
2017-03-08T00:54:45.088Z,3.45
2017-03-08T00:55:57.759Z,3.4
2017-03-08T00:57:10.804Z,3.37
2017-03-08T00:58:23.856Z,3.41
2017-03-08T00:59:36.950Z,3.4
2017-03-08T01:00:50.038Z,3.37
2017-03-08T01:02:02.730Z,3.36
2017-03-08T01:03:15.834Z,3.37
2017-03-08T01:04:28.923Z,3.41
2017-03-08T01:05:41.569Z,3.36
2017-03-08T01:06:54.626Z,3.41
2017-03-08T01:08:07.710Z,3.46
2017-03-08T01:09:20.768Z,3.43
2017-03-08T01:10:33.852Z,3.43
2017-03-08T01:11:46.947Z,3.45
2017-03-08T01:13:00.022Z,3.45
2017-03-08T01:14:12.700Z,3.46
2017-03-08T01:15:25.994Z,3.45
2017-03-08T01:16:38.688Z,3.45
2017-03-08T01:17:51.735Z,3.46
2017-03-08T01:19:04.830Z,3.41
2017-03-08T01:20:17.930Z,3.43
2017-03-08T01:21:30.977Z,3.37
2017-03-08T01:22:43.310Z,3.45
2017-03-08T01:23:56.364Z,3.41
2017-03-08T01:25:09.439Z,3.4
2017-03-08T01:26:22.526Z,3.4
2017-03-08T01:27:35.204Z,3.41
2017-03-08T01:28:47.872Z,3.43
2017-03-08T01:30:00.919Z,3.45
2017-03-08T01:31:13.614Z,3.41
2017-03-08T01:32:26.685Z,3.43
2017-03-08T01:33:39.381Z,3.48
2017-03-08T01:34:52.451Z,3.45
2017-03-08T01:36:05.155Z,3.5
2017-03-08T01:37:17.826Z,3.49
2017-03-08T01:38:30.890Z,3.43
2017-03-08T01:39:43.615Z,3.48
2017-03-08T01:40:56.711Z,3.45
2017-03-08T01:42:09.807Z,3.45
2017-03-08T01:43:22.498Z,3.41
2017-03-08T01:44:35.596Z,3.49
2017-03-08T01:45:47.899Z,3.55
2017-03-08T01:47:00.970Z,3.43
2017-03-08T01:48:13.257Z,3.46
2017-03-08T01:49:25.957Z,3.37
2017-03-08T01:50:39.002Z,3.43
2017-03-08T01:51:51.740Z,3.53
2017-03-08T01:53:04.837Z,3.48
2017-03-08T01:54:17.936Z,3.48
2017-03-08T01:55:31.059Z,3.41
2017-03-08T01:56:44.108Z,3.41
2017-03-08T01:57:57.228Z,3.43
2017-03-08T01:59:10.298Z,3.41
2017-03-08T02:00:23.389Z,3.37
2017-03-08T02:01:36.439Z,3.4
2017-03-08T02:02:49.500Z,3.49
2017-03-08T02:04:02.554Z,3.48
2017-03-08T02:05:15.217Z,3.46
2017-03-08T02:06:28.272Z,3.48
2017-03-08T02:07:41.365Z,3.49
2017-03-08T02:08:54.433Z,3.52
2017-03-08T02:10:07.534Z,3.48
2017-03-08T02:11:20.600Z,3.48
2017-03-08T02:12:33.670Z,3.48
2017-03-08T02:13:46.749Z,3.52
2017-03-08T02:14:59.808Z,3.53
2017-03-08T02:16:12.832Z,3.53
2017-03-08T02:17:25.512Z,3.48
2017-03-08T02:18:38.604Z,3.58
2017-03-08T02:19:51.927Z,3.49
2017-03-08T02:21:05.038Z,3.49
2017-03-08T02:22:17.716Z,3.52
2017-03-08T02:23:30.790Z,3.63
2017-03-08T02:24:43.879Z,3.55
2017-03-08T02:25:56.936Z,3.5
2017-03-08T02:27:10.032Z,3.53
2017-03-08T02:28:23.143Z,3.48
2017-03-08T02:29:36.225Z,3.61
2017-03-08T02:30:49.287Z,3.52
2017-03-08T02:32:02.358Z,3.52
2017-03-08T02:33:15.420Z,3.66
2017-03-08T02:34:28.475Z,3.66
2017-03-08T02:35:41.152Z,3.67
2017-03-08T02:36:54.237Z,3.7
2017-03-08T02:38:06.934Z,3.63
2017-03-08T02:39:20.012Z,3.67
2017-03-08T02:40:32.680Z,3.66
2017-03-08T02:41:45.728Z,3.66
2017-03-08T02:42:58.805Z,3.67
2017-03-08T02:44:11.917Z,3.61
2017-03-08T02:45:25.017Z,3.64
2017-03-08T02:46:38.126Z,3.68
2017-03-08T02:47:51.223Z,3.66
2017-03-08T02:49:04.280Z,3.7
2017-03-08T02:50:17.421Z,3.58
2017-03-08T02:51:30.148Z,3.67
2017-03-08T02:52:43.189Z,3.7
2017-03-08T02:53:55.861Z,3.58
2017-03-08T02:55:08.959Z,3.67
2017-03-08T02:56:22.026Z,3.63
2017-03-08T02:57:35.352Z,3.67
2017-03-08T02:58:48.389Z,3.59
2017-03-08T03:00:01.443Z,3.66
2017-03-08T03:01:14.155Z,3.64
2017-03-08T03:02:27.208Z,3.66
2017-03-08T03:03:40.321Z,3.63
2017-03-08T03:04:52.976Z,3.7
2017-03-08T03:06:06.043Z,3.64
2017-03-08T03:07:19.092Z,3.63
2017-03-08T03:08:31.777Z,3.67
2017-03-08T03:09:44.524Z,3.7
2017-03-08T03:10:57.569Z,3.67
2017-03-08T03:12:10.277Z,3.64
2017-03-08T03:13:23.386Z,3.63
2017-03-08T03:14:36.110Z,3.67
2017-03-08T03:15:49.188Z,3.64
2017-03-08T03:17:02.299Z,3.64
2017-03-08T03:18:15.373Z,3.68
2017-03-08T03:19:28.427Z,3.7
2017-03-08T03:20:41.518Z,3.66
2017-03-08T03:21:54.593Z,3.61
2017-03-08T03:23:07.680Z,3.64
2017-03-08T03:24:20.773Z,3.66
2017-03-08T03:25:34.071Z,3.61
2017-03-08T03:26:47.152Z,3.68
2017-03-08T03:28:00.211Z,3.66
2017-03-08T03:29:13.270Z,3.63
2017-03-08T03:30:25.977Z,3.56
2017-03-08T03:31:39.031Z,3.67
2017-03-08T03:32:51.703Z,3.58
2017-03-08T03:34:04.769Z,3.48
2017-03-08T03:35:17.112Z,3.58
2017-03-08T03:36:30.193Z,3.61
2017-03-08T03:37:43.253Z,3.61
2017-03-08T03:38:55.928Z,3.61
2017-03-08T03:40:08.611Z,3.5
2017-03-08T03:41:21.651Z,3.64
2017-03-08T03:42:34.736Z,3.58
2017-03-08T03:43:47.849Z,3.53
2017-03-08T03:45:00.518Z,3.68
2017-03-08T03:46:13.235Z,3.5
2017-03-08T03:47:26.309Z,3.48
2017-03-08T03:48:38.999Z,3.55
2017-03-08T03:49:52.052Z,3.61
2017-03-08T03:51:05.146Z,3.5
2017-03-08T03:52:17.869Z,3.5
2017-03-08T03:53:30.532Z,3.59
2017-03-08T03:54:43.603Z,3.66
2017-03-08T03:55:56.676Z,3.49
2017-03-08T03:57:09.770Z,3.5
2017-03-08T03:58:22.834Z,3.61
2017-03-08T03:59:35.866Z,3.55
2017-03-08T04:00:48.910Z,3.66
2017-03-08T04:02:01.974Z,3.71
2017-03-08T04:03:14.903Z,3.68
2017-03-08T04:04:27.595Z,3.64
2017-03-08T04:05:40.671Z,3.59
2017-03-08T04:06:53.740Z,3.66
2017-03-08T04:08:06.814Z,3.66
2017-03-08T04:09:19.896Z,3.71
2017-03-08T04:10:32.957Z,3.64
2017-03-08T04:11:46.017Z,3.73
2017-03-08T04:12:59.094Z,3.64
2017-03-08T04:14:12.229Z,3.67
2017-03-08T04:15:25.311Z,3.64
2017-03-08T04:16:37.629Z,3.67
2017-03-08T04:17:50.675Z,3.68
2017-03-08T04:19:03.392Z,3.7
2017-03-08T04:20:16.471Z,3.64
2017-03-08T04:21:29.530Z,3.68
2017-03-08T04:22:42.629Z,3.63
2017-03-08T04:23:55.708Z,3.68
2017-03-08T04:25:08.797Z,3.64
2017-03-08T04:26:21.877Z,3.7
2017-03-08T04:27:34.932Z,3.63
2017-03-08T04:28:47.594Z,3.66
2017-03-08T04:30:00.509Z,3.66
2017-03-08T04:31:13.559Z,3.66
2017-03-08T04:32:26.656Z,3.64
2017-03-08T04:33:39.349Z,3.61
2017-03-08T04:34:52.439Z,3.52
2017-03-08T04:36:05.141Z,3.68
2017-03-08T04:37:18.227Z,3.55
2017-03-08T04:38:31.307Z,3.63
2017-03-08T04:39:44.400Z,3.58
2017-03-08T04:40:57.726Z,3.66
2017-03-08T04:42:10.835Z,3.61
2017-03-08T04:43:23.895Z,3.61
2017-03-08T04:44:36.609Z,3.55
2017-03-08T04:45:49.630Z,3.55
2017-03-08T04:47:02.701Z,3.49
2017-03-08T04:48:15.747Z,3.63
2017-03-08T04:49:28.801Z,3.64
2017-03-08T04:50:41.919Z,3.58
2017-03-08T04:51:55.041Z,3.61
2017-03-08T04:53:08.123Z,3.64
2017-03-08T04:54:21.201Z,3.61
2017-03-08T04:55:33.872Z,3.59
2017-03-08T04:56:46.985Z,3.64
2017-03-08T04:58:00.029Z,3.66
2017-03-08T04:59:13.102Z,3.59
2017-03-08T05:00:26.182Z,3.63
2017-03-08T05:01:39.244Z,3.61
2017-03-08T05:02:52.283Z,3.55
2017-03-08T05:04:05.373Z,3.58
2017-03-08T05:05:18.046Z,3.55
2017-03-08T05:06:31.135Z,3.55
2017-03-08T05:07:44.184Z,3.63
2017-03-08T05:08:57.305Z,3.55
2017-03-08T05:10:10.023Z,3.64
2017-03-08T05:11:23.125Z,3.61
2017-03-08T05:12:35.782Z,3.61
2017-03-08T05:13:48.831Z,3.49
2017-03-08T05:15:01.936Z,3.48
2017-03-08T05:16:15.005Z,3.66
2017-03-08T05:17:27.719Z,3.58
2017-03-08T05:18:40.794Z,3.63
2017-03-08T05:19:54.136Z,3.56
2017-03-08T05:21:06.865Z,3.58
2017-03-08T05:22:19.936Z,3.59
2017-03-08T05:23:33.082Z,3.53
2017-03-08T05:24:46.202Z,3.64
2017-03-08T05:25:59.316Z,3.53
2017-03-08T05:27:11.992Z,3.64
2017-03-08T05:28:25.064Z,3.61
2017-03-08T05:29:37.731Z,3.56
2017-03-08T05:30:50.835Z,3.64
2017-03-08T05:32:03.927Z,3.55
2017-03-08T05:33:17.037Z,3.5
2017-03-08T05:34:30.124Z,3.63
2017-03-08T05:35:42.786Z,3.67
2017-03-08T05:36:55.861Z,3.63
2017-03-08T05:38:08.932Z,3.66
2017-03-08T05:39:22.023Z,3.61
2017-03-08T05:40:35.073Z,3.56
2017-03-08T05:41:47.790Z,3.63
2017-03-08T05:43:00.871Z,3.66
2017-03-08T05:44:13.938Z,3.66
2017-03-08T05:45:26.649Z,3.7
2017-03-08T05:46:39.941Z,3.67
2017-03-08T05:47:53.000Z,3.63
2017-03-08T05:49:05.695Z,3.7
2017-03-08T05:50:18.763Z,3.68
2017-03-08T05:51:31.833Z,3.67
2017-03-08T05:52:44.933Z,3.58
2017-03-08T05:53:58.070Z,3.66
2017-03-08T05:55:11.123Z,3.74
2017-03-08T05:56:23.833Z,3.67
2017-03-08T05:57:36.540Z,3.71
2017-03-08T05:58:49.625Z,3.74
2017-03-08T06:00:02.703Z,3.71
2017-03-08T06:01:15.395Z,3.73
2017-03-08T06:02:28.102Z,3.74
2017-03-08T06:03:41.150Z,3.76
2017-03-08T06:04:54.220Z,3.77
2017-03-08T06:06:07.301Z,3.71
2017-03-08T06:07:20.374Z,3.7
2017-03-08T06:08:33.407Z,3.68
2017-03-08T06:09:46.475Z,3.7
2017-03-08T06:10:59.567Z,3.89
2017-03-08T06:12:12.659Z,3.74
2017-03-08T06:13:24.979Z,3.82
2017-03-08T06:14:37.679Z,3.81
2017-03-08T06:15:50.746Z,3.76
2017-03-08T06:17:03.813Z,3.77
2017-03-08T06:18:16.895Z,3.82
2017-03-08T06:19:29.984Z,3.85
2017-03-08T06:20:42.701Z,3.84
2017-03-08T06:21:55.775Z,3.86
2017-03-08T06:23:08.850Z,3.91
2017-03-08T06:24:21.965Z,3.95
2017-03-08T06:25:35.108Z,3.89
2017-03-08T06:26:47.796Z,3.89
2017-03-08T06:28:00.516Z,3.89
2017-03-08T06:29:13.209Z,3.88
2017-03-08T06:30:26.555Z,3.89
2017-03-08T06:31:39.625Z,3.95
2017-03-08T06:32:52.676Z,3.95
2017-03-08T06:34:05.790Z,3.91
2017-03-08T06:35:18.478Z,4.04
2017-03-08T06:36:30.783Z,3.96
2017-03-08T06:37:43.851Z,3.95
2017-03-08T06:38:56.968Z,4.03
2017-03-08T06:40:10.050Z,4.04
2017-03-08T06:41:22.748Z,4.02
2017-03-08T06:42:35.838Z,4.09
2017-03-08T06:43:48.908Z,4.09
2017-03-08T06:45:01.626Z,4.06
2017-03-08T06:46:14.739Z,4.07
2017-03-08T06:47:27.796Z,4.1
2017-03-08T06:48:40.867Z,4.09
2017-03-08T06:49:53.985Z,4.07
2017-03-08T06:51:06.685Z,4.04
2017-03-08T06:52:19.751Z,4.07
2017-03-08T06:53:32.447Z,4.04
2017-03-08T06:54:45.498Z,4.21
2017-03-08T06:55:58.567Z,4.18
2017-03-08T06:57:11.664Z,4.22
2017-03-08T06:58:25.006Z,4.25
2017-03-08T06:59:38.106Z,4.25
2017-03-08T07:00:51.197Z,4.3
2017-03-08T07:02:04.239Z,4.31
2017-03-08T07:03:17.317Z,4.3
2017-03-08T07:04:30.389Z,4.38
2017-03-08T07:05:43.492Z,4.34
2017-03-08T07:06:56.580Z,4.28
2017-03-08T07:08:09.300Z,4.36
2017-03-08T07:09:21.996Z,4.34
2017-03-08T07:10:34.710Z,4.32
2017-03-08T07:11:47.767Z,4.43
2017-03-08T07:13:00.861Z,4.4
2017-03-08T07:14:13.945Z,4.36
2017-03-08T07:15:26.991Z,4.45
2017-03-08T07:16:39.719Z,4.46
2017-03-08T07:17:52.814Z,4.46
2017-03-08T07:19:05.921Z,4.49
2017-03-08T07:20:19.002Z,4.53
2017-03-08T07:21:32.054Z,4.48
2017-03-08T07:22:44.752Z,4.52
2017-03-08T07:23:57.437Z,4.63
2017-03-08T07:25:10.740Z,4.6
2017-03-08T07:26:23.792Z,4.58
2017-03-08T07:27:36.874Z,4.6
2017-03-08T07:28:49.577Z,4.61
2017-03-08T07:30:02.703Z,4.64
2017-03-08T07:31:15.772Z,4.76
2017-03-08T07:32:28.101Z,4.71
2017-03-08T07:33:41.193Z,4.78
2017-03-08T07:34:54.277Z,4.76
2017-03-08T07:36:06.979Z,4.79
2017-03-08T07:37:20.095Z,4.76
2017-03-08T07:38:32.802Z,4.87
2017-03-08T07:39:45.844Z,4.9
2017-03-08T07:40:58.914Z,4.9
2017-03-08T07:42:11.957Z,4.94
2017-03-08T07:43:24.982Z,4.9
2017-03-08T07:44:38.045Z,4.89
2017-03-08T07:45:50.745Z,4.95
2017-03-08T07:47:03.440Z,4.94
2017-03-08T07:48:16.515Z,4.98
2017-03-08T07:49:29.209Z,5.01
2017-03-08T07:50:41.925Z,5.07
2017-03-08T07:51:55.003Z,5.05
2017-03-08T07:53:08.101Z,5.08
2017-03-08T07:54:21.171Z,5.12
2017-03-08T07:55:34.258Z,5.19
2017-03-08T07:56:46.978Z,5.19
2017-03-08T07:58:00.049Z,5.16
2017-03-08T07:59:13.128Z,5.22
2017-03-08T08:00:25.824Z,5.22
2017-03-08T08:01:38.919Z,5.2
2017-03-08T08:02:51.990Z,5.26
2017-03-08T08:04:05.086Z,5.25
2017-03-08T08:05:17.775Z,5.31
2017-03-08T08:06:30.477Z,5.2
2017-03-08T08:07:43.564Z,5.25
2017-03-08T08:08:56.246Z,5.31
2017-03-08T08:10:09.315Z,5.29
2017-03-08T08:11:22.012Z,5.25
2017-03-08T08:12:35.078Z,5.29
2017-03-08T08:13:47.752Z,5.34
2017-03-08T08:15:00.866Z,5.33
2017-03-08T08:16:13.947Z,5.34
2017-03-08T08:17:26.734Z,5.36
2017-03-08T08:18:39.428Z,5.33
2017-03-08T08:19:52.520Z,5.38
2017-03-08T08:21:05.229Z,5.37
2017-03-08T08:22:18.316Z,5.36
2017-03-08T08:23:30.645Z,5.36
2017-03-08T08:24:43.741Z,5.44
2017-03-08T08:25:56.813Z,5.4
2017-03-08T08:27:09.854Z,5.47
2017-03-08T08:28:22.553Z,5.56
2017-03-08T08:29:34.876Z,5.43
2017-03-08T08:30:47.546Z,5.47
2017-03-08T08:32:00.638Z,5.58
2017-03-08T08:33:13.404Z,5.55
2017-03-08T08:34:26.473Z,5.55
2017-03-08T08:35:39.146Z,5.55
2017-03-08T08:36:52.221Z,5.54
2017-03-08T08:38:05.310Z,5.67
2017-03-08T08:39:18.416Z,5.62
2017-03-08T08:40:31.513Z,5.76
2017-03-08T08:41:44.582Z,5.79
2017-03-08T08:42:56.909Z,5.83
2017-03-08T08:44:10.000Z,5.91
2017-03-08T08:45:22.298Z,5.97
2017-03-08T08:46:35.341Z,5.95
2017-03-08T08:47:48.388Z,6.07
2017-03-08T08:49:00.681Z,6.16
2017-03-08T08:50:13.380Z,6.22
2017-03-08T08:51:26.429Z,6.2
2017-03-08T08:52:39.521Z,6.17
2017-03-08T08:53:52.589Z,6.28
2017-03-08T08:55:05.667Z,6.29
2017-03-08T08:56:18.759Z,6.26
2017-03-08T08:57:31.843Z,6.28
2017-03-08T08:58:44.518Z,6.28
2017-03-08T08:59:57.585Z,6.35
2017-03-08T09:01:10.756Z,6.36
2017-03-08T09:02:23.830Z,6.38
2017-03-08T09:03:36.955Z,6.43
2017-03-08T09:04:50.026Z,6.41
2017-03-08T09:06:02.723Z,6.43
2017-03-08T09:07:15.410Z,6.44
2017-03-08T09:08:28.464Z,6.44
2017-03-08T09:09:41.516Z,6.44
2017-03-08T09:10:54.584Z,6.44
2017-03-08T09:12:07.697Z,6.39
2017-03-08T09:13:20.431Z,6.43
2017-03-08T09:14:33.543Z,6.47
2017-03-08T09:15:46.589Z,6.46
2017-03-08T09:16:59.660Z,6.49
2017-03-08T09:18:12.331Z,6.46
2017-03-08T09:19:25.454Z,6.52
2017-03-08T09:20:38.505Z,6.43
2017-03-08T09:21:51.564Z,6.46
2017-03-08T09:23:04.640Z,6.46
2017-03-08T09:24:17.319Z,6.54
2017-03-08T09:25:30.364Z,6.6
2017-03-08T09:26:42.656Z,6.6
2017-03-08T09:27:55.352Z,6.62
2017-03-08T09:29:08.475Z,6.65
2017-03-08T09:30:21.586Z,6.74
2017-03-08T09:31:34.664Z,6.72
2017-03-08T09:32:47.741Z,6.75
2017-03-08T09:34:00.824Z,6.82
2017-03-08T09:35:13.921Z,6.78
2017-03-08T09:36:27.019Z,6.87
2017-03-08T09:37:39.683Z,6.87
2017-03-08T09:38:52.770Z,6.86
2017-03-08T09:40:05.460Z,6.89
2017-03-08T09:41:18.559Z,6.9
2017-03-08T09:42:31.298Z,6.96
2017-03-08T09:43:44.387Z,7.07
2017-03-08T09:44:57.536Z,7.08
2017-03-08T09:46:10.604Z,7.08
2017-03-08T09:47:23.656Z,7.18
2017-03-08T09:48:36.731Z,7.14
2017-03-08T09:49:49.823Z,7.29
2017-03-08T09:51:02.875Z,7.26
2017-03-08T09:52:15.971Z,7.29
2017-03-08T09:53:28.686Z,7.29
2017-03-08T09:54:41.362Z,7.36
2017-03-08T09:55:54.471Z,7.37
2017-03-08T09:57:07.570Z,7.41
2017-03-08T09:58:20.648Z,7.41
2017-03-08T09:59:33.734Z,7.5
2017-03-08T10:00:46.408Z,7.51
2017-03-08T10:01:59.500Z,7.55
2017-03-08T10:03:12.582Z,7.56
2017-03-08T10:04:25.302Z,7.64
2017-03-08T10:05:38.388Z,7.74
2017-03-08T10:06:51.491Z,7.77
2017-03-08T10:08:04.562Z,7.75
2017-03-08T10:09:17.232Z,7.9
2017-03-08T10:10:30.283Z,7.85
2017-03-08T10:11:43.353Z,7.98
2017-03-08T10:12:55.666Z,8.02
2017-03-08T10:14:08.747Z,8.05
2017-03-08T10:15:21.805Z,8.11
2017-03-08T10:16:34.884Z,8.21
2017-03-08T10:17:47.972Z,8.24
2017-03-08T10:19:01.076Z,8.31
2017-03-08T10:20:14.130Z,8.31
2017-03-08T10:21:27.218Z,8.39
2017-03-08T10:22:39.534Z,8.52
2017-03-08T10:23:52.612Z,8.53
2017-03-08T10:25:05.308Z,8.56
2017-03-08T10:26:18.367Z,8.71
2017-03-08T10:27:31.492Z,8.77
2017-03-08T10:28:44.218Z,8.79
2017-03-08T10:29:57.288Z,8.86
2017-03-08T10:31:10.342Z,8.99
2017-03-08T10:32:23.448Z,9.11
2017-03-08T10:33:36.493Z,9.09
2017-03-08T10:34:49.147Z,9.29
2017-03-08T10:36:02.222Z,9.37
2017-03-08T10:37:15.290Z,9.49
2017-03-08T10:38:27.963Z,9.54
2017-03-08T10:39:41.005Z,9.62
2017-03-08T10:40:54.129Z,9.7
2017-03-08T10:42:07.202Z,9.77
2017-03-08T10:43:20.285Z,9.85
2017-03-08T10:44:32.642Z,9.92
2017-03-08T10:45:45.708Z,10
2017-03-08T10:46:58.426Z,9.99
2017-03-08T10:48:11.493Z,9.99
2017-03-08T10:49:24.229Z,10.15
2017-03-08T10:50:36.896Z,10.06
2017-03-08T10:51:49.942Z,10.12
2017-03-08T10:53:03.017Z,10.12
2017-03-08T10:54:15.714Z,10.28
2017-03-08T10:55:28.029Z,10.28
2017-03-08T10:56:40.774Z,10.36
2017-03-08T10:57:53.086Z,10.38
2017-03-08T10:59:06.139Z,10.34
2017-03-08T11:00:18.854Z,10.43
2017-03-08T11:01:31.561Z,10.51
2017-03-08T11:02:44.649Z,10.57
2017-03-08T11:03:57.726Z,10.67
2017-03-08T11:05:10.814Z,10.65
2017-03-08T11:06:23.916Z,10.72
2017-03-08T11:07:37.009Z,10.76
2017-03-08T11:08:49.711Z,10.84
2017-03-08T11:10:02.423Z,10.8
2017-03-08T11:11:16.127Z,10.82
2017-03-08T11:12:28.819Z,10.97
2017-03-08T11:13:41.895Z,10.94
2017-03-08T11:14:54.956Z,11.02
2017-03-08T11:16:08.011Z,11
2017-03-08T11:17:21.102Z,11.1
2017-03-08T11:18:34.199Z,11.15
2017-03-08T11:19:47.115Z,11.12
2017-03-08T11:21:00.261Z,11.12
2017-03-08T11:22:13.387Z,11.22
2017-03-08T11:23:26.483Z,11.2
2017-03-08T11:24:39.531Z,11.26
2017-03-08T11:25:52.599Z,11.22
2017-03-08T11:27:05.690Z,11.3
2017-03-08T11:28:18.787Z,11.35
2017-03-08T11:29:31.877Z,11.35
2017-03-08T11:30:43.762Z,11.35
2017-03-08T11:31:56.473Z,11.38
2017-03-08T11:33:09.516Z,11.4
2017-03-08T11:34:22.577Z,11.38
2017-03-08T11:35:35.282Z,11.43
2017-03-08T11:36:47.589Z,11.44
2017-03-08T11:38:00.633Z,11.43
2017-03-08T11:39:13.331Z,11.44
2017-03-08T11:40:26.426Z,11.45
2017-03-08T11:41:39.798Z,11.45
2017-03-08T11:42:52.495Z,11.48
2017-03-08T11:44:05.541Z,11.49
2017-03-08T11:45:18.213Z,11.44
2017-03-08T11:46:31.282Z,11.4
2017-03-08T11:47:44.353Z,11.44
2017-03-08T11:48:57.045Z,11.45
2017-03-08T11:50:10.117Z,11.34
2017-03-08T11:51:22.787Z,11.41
2017-03-08T11:52:35.475Z,11.44
2017-03-08T11:53:48.161Z,11.38
2017-03-08T11:55:00.859Z,11.44
2017-03-08T11:56:13.565Z,11.41
2017-03-08T11:57:26.312Z,11.49
2017-03-08T11:58:38.983Z,11.44
2017-03-08T11:59:51.654Z,11.41
2017-03-08T12:01:04.379Z,11.35
2017-03-08T12:02:17.447Z,11.37
2017-03-08T12:03:30.519Z,11.38
2017-03-08T12:04:43.221Z,11.45
2017-03-08T12:05:56.287Z,11.48
2017-03-08T12:07:09.380Z,11.45
2017-03-08T12:08:22.459Z,11.45
2017-03-08T12:09:35.196Z,11.51
2017-03-08T12:10:47.917Z,11.48
2017-03-08T12:12:01.017Z,11.44
2017-03-08T12:13:14.105Z,11.49
2017-03-08T12:14:27.205Z,11.4
2017-03-08T12:15:40.006Z,11.41
2017-03-08T12:16:52.700Z,11.35
2017-03-08T12:18:05.792Z,11.34
2017-03-08T12:19:18.871Z,11.43
2017-03-08T12:20:31.919Z,11.4
2017-03-08T12:21:44.959Z,11.41
2017-03-08T12:22:58.023Z,11.51
2017-03-08T12:24:11.080Z,11.48
2017-03-08T12:25:24.150Z,11.43
2017-03-08T12:26:37.264Z,11.48
2017-03-08T12:27:50.334Z,11.43
2017-03-08T12:29:03.413Z,11.55
2017-03-08T12:30:16.525Z,11.51
2017-03-08T12:31:29.631Z,11.53
2017-03-08T12:32:42.300Z,11.55
2017-03-08T12:33:55.368Z,11.68
2017-03-08T12:35:08.460Z,11.65
2017-03-08T12:36:21.538Z,11.76
2017-03-08T12:37:34.659Z,11.76
2017-03-08T12:38:47.355Z,11.86
2017-03-08T12:40:00.451Z,11.89
2017-03-08T12:41:13.168Z,11.91
2017-03-08T12:42:26.289Z,11.95
2017-03-08T12:43:39.380Z,12
2017-03-08T12:44:52.458Z,11.97
2017-03-08T12:46:05.177Z,11.99
2017-03-08T12:47:17.865Z,12.02
2017-03-08T12:48:30.143Z,12.12
2017-03-08T12:49:43.215Z,12.07
2017-03-08T12:50:55.927Z,12.03
2017-03-08T12:52:08.987Z,12.1
2017-03-08T12:53:22.094Z,12.07
2017-03-08T12:54:35.130Z,12.11
2017-03-08T12:55:47.436Z,12.02
2017-03-08T12:57:00.544Z,12.18
2017-03-08T12:58:13.636Z,12.15
2017-03-08T12:59:26.727Z,12.14
2017-03-08T13:00:39.856Z,12.03
2017-03-08T13:01:52.966Z,11.97
2017-03-08T13:03:06.069Z,11.91
2017-03-08T13:04:18.795Z,11.97
2017-03-08T13:05:31.082Z,11.81
2017-03-08T13:06:43.782Z,11.88
2017-03-08T13:07:56.456Z,11.81
2017-03-08T13:09:09.578Z,11.83
2017-03-08T13:10:21.915Z,11.73
2017-03-08T13:11:34.600Z,11.83
2017-03-08T13:12:47.282Z,11.77
2017-03-08T13:13:59.578Z,11.77
2017-03-08T13:15:12.256Z,11.71
2017-03-08T13:16:25.370Z,11.78
2017-03-08T13:17:38.470Z,11.81
2017-03-08T13:18:50.793Z,11.77
2017-03-08T13:20:03.869Z,11.77
2017-03-08T13:21:16.950Z,11.78
2017-03-08T13:22:29.631Z,11.81
2017-03-08T13:23:42.715Z,11.93
2017-03-08T13:24:55.001Z,11.95
2017-03-08T13:26:08.096Z,11.95
2017-03-08T13:27:21.179Z,12.02
2017-03-08T13:28:34.251Z,12.11
2017-03-08T13:29:47.335Z,12.07
2017-03-08T13:31:00.429Z,12.1
2017-03-08T13:32:13.542Z,12.1
2017-03-08T13:33:26.671Z,12.1
2017-03-08T13:34:39.737Z,12.21
2017-03-08T13:35:52.804Z,12.17
2017-03-08T13:37:05.897Z,12.15
2017-03-08T13:38:18.958Z,12.18
2017-03-08T13:39:32.028Z,12.25
2017-03-08T13:40:45.096Z,12.18
2017-03-08T13:41:58.189Z,12.14
2017-03-08T13:43:10.938Z,12.18
2017-03-08T13:44:23.982Z,12.17
2017-03-08T13:45:37.050Z,12.12
2017-03-08T13:46:49.749Z,12.11
2017-03-08T13:48:02.841Z,12.12
2017-03-08T13:49:15.517Z,11.99
2017-03-08T13:50:28.633Z,11.97
2017-03-08T13:51:41.733Z,11.96
2017-03-08T13:52:54.643Z,11.85
2017-03-08T13:54:07.717Z,11.77
2017-03-08T13:55:20.816Z,11.8
2017-03-08T13:56:33.519Z,11.67
2017-03-08T13:57:46.630Z,11.63
2017-03-08T13:58:59.733Z,11.56
2017-03-08T14:00:12.803Z,11.52
2017-03-08T14:01:25.514Z,11.44
2017-03-08T14:02:38.584Z,11.44
2017-03-08T14:03:51.634Z,11.34
2017-03-08T14:05:04.714Z,11.38
2017-03-08T14:06:17.785Z,11.4
2017-03-08T14:07:30.895Z,11.34
2017-03-08T14:08:43.576Z,11.35
2017-03-08T14:09:56.297Z,11.27
2017-03-08T14:11:08.988Z,11.26
2017-03-08T14:12:22.084Z,11.26
2017-03-08T14:13:35.183Z,11.23
2017-03-08T14:14:47.876Z,11.27
2017-03-08T14:16:00.927Z,11.25
2017-03-08T14:17:13.618Z,11.3
2017-03-08T14:18:26.367Z,11.25
2017-03-08T14:19:39.053Z,11.25
2017-03-08T14:20:51.759Z,11.23
2017-03-08T14:22:04.476Z,11.23
2017-03-08T14:23:17.572Z,11.23
2017-03-08T14:24:30.268Z,11.19
2017-03-08T14:25:42.967Z,11.23
2017-03-08T14:26:56.052Z,11.2
2017-03-08T14:28:09.134Z,11.27
2017-03-08T14:29:22.198Z,11.19
2017-03-08T14:30:34.877Z,11.22
2017-03-08T14:31:47.190Z,11.22
2017-03-08T14:33:00.260Z,11.16
2017-03-08T14:34:13.340Z,11.15
2017-03-08T14:35:26.448Z,11.12
2017-03-08T14:36:39.573Z,11.07
2017-03-08T14:37:52.275Z,11.01
2017-03-08T14:39:04.973Z,11.01
2017-03-08T14:40:17.682Z,11.02
2017-03-08T14:41:30.432Z,11
2017-03-08T14:42:43.537Z,11.02
2017-03-08T14:43:55.858Z,11.01
2017-03-08T14:45:08.577Z,10.92
2017-03-08T14:46:21.675Z,10.92
2017-03-08T14:47:34.365Z,10.89
2017-03-08T14:48:47.454Z,10.97
2017-03-08T14:50:00.132Z,10.86
2017-03-08T14:51:12.831Z,10.87
2017-03-08T14:52:25.924Z,10.83
2017-03-08T14:53:38.994Z,10.86
2017-03-08T14:54:52.070Z,10.9
2017-03-08T14:56:05.129Z,10.9
2017-03-08T14:57:18.210Z,10.84
2017-03-08T14:58:31.332Z,10.8
2017-03-08T14:59:44.424Z,10.76
2017-03-08T15:00:57.500Z,10.71
2017-03-08T15:02:10.208Z,10.76
2017-03-08T15:03:23.286Z,10.67
2017-03-08T15:04:35.967Z,10.67
2017-03-08T15:05:49.031Z,10.68
2017-03-08T15:07:02.100Z,10.59
2017-03-08T15:08:15.169Z,10.58
2017-03-08T15:09:27.858Z,10.71
2017-03-08T15:10:40.918Z,10.58
2017-03-08T15:11:53.587Z,10.55
2017-03-08T15:13:06.283Z,10.53
2017-03-08T15:14:19.331Z,10.53
2017-03-08T15:15:32.025Z,10.48
2017-03-08T15:16:45.109Z,10.48
2017-03-08T15:17:58.204Z,10.55
2017-03-08T15:19:11.267Z,10.46
2017-03-08T15:20:24.346Z,10.45
2017-03-08T15:21:37.042Z,10.43
2017-03-08T15:22:50.102Z,10.46
2017-03-08T15:24:03.188Z,10.31
2017-03-08T15:25:16.266Z,10.42
2017-03-08T15:26:29.337Z,10.33
2017-03-08T15:27:42.397Z,10.38
2017-03-08T15:28:55.453Z,10.34
2017-03-08T15:30:08.549Z,10.33
2017-03-08T15:31:21.697Z,10.28
2017-03-08T15:32:34.767Z,10.25
2017-03-08T15:33:47.833Z,10.23
2017-03-08T15:35:00.926Z,10.31
2017-03-08T15:36:13.979Z,10.3
2017-03-08T15:37:26.674Z,10.25
2017-03-08T15:38:39.747Z,10.27
2017-03-08T15:39:52.416Z,10.31
2017-03-08T15:41:05.133Z,10.23
2017-03-08T15:42:18.229Z,10.13
2017-03-08T15:43:31.318Z,10.1
2017-03-08T15:44:44.396Z,10.18
2017-03-08T15:45:57.075Z,10.27
2017-03-08T15:47:10.168Z,10.1
2017-03-08T15:48:23.254Z,10.2
2017-03-08T15:49:36.348Z,10.07
2017-03-08T15:50:48.651Z,10.2
2017-03-08T15:52:01.698Z,10.13
2017-03-08T15:53:14.371Z,10.09
2017-03-08T15:54:27.418Z,10.15
2017-03-08T15:55:40.502Z,10.09
2017-03-08T15:56:53.193Z,10.09
2017-03-08T15:58:06.255Z,10.07
2017-03-08T15:59:19.318Z,10.05
2017-03-08T16:00:32.417Z,9.95
2017-03-08T16:01:44.690Z,10
2017-03-08T16:02:57.764Z,10.06